Time;durP1;ratioP1;P1;durP2;ratioP2;P2;SDS_P1;SDS_P2;PMS_P1;PMS_P2;Temp;Humidity;BMP_temperature;BMP_pressure;BME280_temperature;BME280_humidity;BME280_pressure;Samples;Min_cycle;Max_cycle;Signal;HPM_P1;HPM_P2
2022/11/11 00:01:29;;;;;;;;;6.00;6.00;;;;;;;;5078921;28;45713;-82
2022/11/11 00:03:57;;;;;;;;;12.67;9.67;;;;;;;;5067227;28;46956;-81
2022/11/11 00:06:22;;;;;;;;;14.00;9.67;;;;;;;;5084535;28;45813;-82
2022/11/11 00:08:48;;;;;;;;;11.33;10.33;;;;;;;;5065395;28;45871;-80
2022/11/11 00:11:14;;;;;;;;;12.33;11.00;;;;;;;;5061218;28;46669;-82
2022/11/11 00:13:40;;;;;;;;;10.00;9.33;;;;;;;;5079721;28;47656;-81
2022/11/11 00:16:14;;;;;;;;;10.33;9.00;;;;;;;;5058071;27;45752;-81
2022/11/11 00:26:45;;;;;;;;;9.33;8.00;;;;;;;;5075290;28;44691;-81
2022/11/11 00:29:12;;;;;;;;;9.33;9.00;;;;;;;;5051894;28;45602;-81
2022/11/11 00:32:21;;;;;;;;;11.00;9.00;;;;;;;;5050440;28;45533;-81
2022/11/11 00:34:22;;;;;;;;;9.00;9.00;;;;;;;;5072099;27;45763;-81
2022/11/11 00:36:47;;;;;;;;;14.00;11.33;;;;;;;;5056463;28;45503;-82
2022/11/11 00:39:13;;;;;;;;;11.67;8.33;;;;;;;;5052737;28;45810;-81
2022/11/11 00:41:38;;;;;;;;;9.67;8.67;;;;;;;;5072282;28;45609;-81
2022/11/11 00:44:04;;;;;;;;;11.00;9.00;;;;;;;;5057028;28;47169;-80
2022/11/11 00:51:57;;;;;;;;;9.67;9.00;;;;;;;;5074050;28;45436;-81
2022/11/11 00:54:23;;;;;;;;;10.00;10.00;;;;;;;;5080566;28;46450;-82
2022/11/11 00:56:49;;;;;;;;;11.33;10.00;;;;;;;;5060531;28;45609;-81
2022/11/11 00:59:14;;;;;;;;;12.33;9.00;;;;;;;;5057871;28;45453;-81
2022/11/11 01:01:40;;;;;;;;;12.33;9.33;;;;;;;;5076199;28;45386;-81
2022/11/11 01:04:05;;;;;;;;;10.00;8.33;;;;;;;;5054144;28;46946;-81
2022/11/11 01:06:30;;;;;;;;;4.67;4.67;;;;;;;;5056655;28;45899;-79
2022/11/11 01:08:55;;;;;;;;;9.00;7.67;;;;;;;;5066816;27;45634;-80
2022/11/11 01:11:22;;;;;;;;;10.67;10.67;;;;;;;;5049552;28;45762;-81
2022/11/11 01:13:48;;;;;;;;;10.33;10.33;;;;;;;;5047205;28;47282;-80
2022/11/11 01:16:15;;;;;;;;;9.33;9.00;;;;;;;;5055066;28;45487;-81
2022/11/11 01:18:40;;;;;;;;;10.67;9.33;;;;;;;;5059166;27;45810;-82
2022/11/11 01:21:07;;;;;;;;;11.00;9.00;;;;;;;;5075270;28;45428;-81
2022/11/11 01:23:34;;;;;;;;;9.33;8.00;;;;;;;;5056250;28;46856;-79
2022/11/11 01:26:22;;;;;;;;;10.00;9.00;;;;;;;;5074384;28;45769;-81
2022/11/11 01:28:49;;;;;;;;;8.33;8.33;;;;;;;;5065717;28;45486;-82
2022/11/11 01:31:15;;;;;;;;;10.67;9.33;;;;;;;;5057473;28;46164;-80
2022/11/11 01:33:40;;;;;;;;;10.33;9.33;;;;;;;;5058817;28;46986;-82
2022/11/11 01:36:07;;;;;;;;;11.67;10.00;;;;;;;;5071421;28;45431;-80
2022/11/11 01:38:32;;;;;;;;;10.67;10.33;;;;;;;;5067686;28;45861;-80
2022/11/11 01:40:57;;;;;;;;;13.00;10.67;;;;;;;;5076057;28;45741;-81
2022/11/11 01:43:23;;;;;;;;;14.00;10.33;;;;;;;;5044696;28;45515;-81
2022/11/11 01:45:59;;;;;;;;;11.00;10.33;;;;;;;;5074899;28;45370;-80
2022/11/11 01:51:22;;;;;;;;;12.33;9.00;;;;;;;;5075086;28;45558;-81
2022/11/11 01:53:51;;;;;;;;;12.00;9.00;;;;;;;;5068001;27;46442;-79
2022/11/11 01:56:16;;;;;;;;;10.33;10.33;;;;;;;;5060972;28;45355;-80
2022/11/11 01:58:42;;;;;;;;;9.67;9.67;;;;;;;;5058140;28;45414;-80
2022/11/11 02:01:07;;;;;;;;;7.33;6.00;;;;;;;;5076012;28;45375;-79
2022/11/11 02:03:37;;;;;;;;;9.67;9.00;;;;;;;;5074646;28;46845;-79
2022/11/11 02:06:02;;;;;;;;;9.00;9.00;;;;;;;;5074322;28;45478;-79
2022/11/11 02:08:33;;;;;;;;;11.67;9.67;;;;;;;;5056740;28;45375;-80
2022/11/11 02:11:03;;;;;;;;;9.33;8.67;;;;;;;;5082894;28;45590;-79
2022/11/11 02:16:12;;;;;;;;;12.67;10.00;;;;;;;;5081857;28;45709;-81
2022/11/11 02:18:38;;;;;;;;;7.33;7.33;;;;;;;;5063535;28;45605;-79
2022/11/11 02:21:03;;;;;;;;;12.67;10.67;;;;;;;;5066223;28;45627;-80
2022/11/11 02:23:31;;;;;;;;;8.00;7.00;;;;;;;;5062128;28;46623;-81
2022/11/11 02:25:59;;;;;;;;;11.00;11.00;;;;;;;;5078437;28;45805;-79
2022/11/11 02:28:25;;;;;;;;;15.00;11.33;;;;;;;;5064389;28;45736;-79
2022/11/11 02:30:50;;;;;;;;;12.00;10.67;;;;;;;;5053100;28;45837;-81
2022/11/11 02:33:15;;;;;;;;;9.00;6.00;;;;;;;;5056697;28;47315;-79
2022/11/11 02:35:46;;;;;;;;;9.50;8.50;;;;;;;;5072164;27;45826;-81
2022/11/11 02:38:11;;;;;;;;;11.33;9.67;;;;;;;;5055316;28;45781;-79
2022/11/11 02:43:28;;;;;;;;;10.33;10.33;;;;;;;;5061723;27;45899;-79
2022/11/11 02:45:53;;;;;;;;;12.67;12.67;;;;;;;;5078056;27;45321;-81
2022/11/11 02:48:19;;;;;;;;;11.00;10.33;;;;;;;;5060439;27;45325;-80
2022/11/11 02:50:44;;;;;;;;;13.00;11.33;;;;;;;;5053278;28;46237;-80
2022/11/11 02:53:10;;;;;;;;;9.00;9.00;;;;;;;;5060290;27;45491;-79
2022/11/11 02:55:35;;;;;;;;;10.00;9.00;;;;;;;;5058682;28;45337;-80
2022/11/11 02:58:01;;;;;;;;;9.67;9.00;;;;;;;;5044947;28;45346;-79
2022/11/11 03:00:26;;;;;;;;;14.00;10.00;;;;;;;;5075805;28;45503;-80
2022/11/11 03:02:51;;;;;;;;;15.00;12.33;;;;;;;;5069580;27;45483;-80
2022/11/11 03:05:17;;;;;;;;;11.67;11.00;;;;;;;;5066234;28;45455;-79
2022/11/11 03:07:43;;;;;;;;;12.00;11.00;;;;;;;;5075475;28;45852;-81
2022/11/11 03:10:08;;;;;;;;;12.33;11.00;;;;;;;;5066598;28;45785;-81
2022/11/11 03:12:33;;;;;;;;;13.00;12.00;;;;;;;;5053800;28;46902;-80
2022/11/11 03:14:58;;;;;;;;;13.33;11.00;;;;;;;;5069663;28;45740;-79
2022/11/11 03:17:39;;;;;;;;;13.00;12.00;;;;;;;;5057372;28;45498;-80
2022/11/11 03:23:06;;;;;;;;;10.67;9.67;;;;;;;;5078821;28;45449;-80
2022/11/11 03:25:38;;;;;;;;;9.67;9.67;;;;;;;;5078485;28;45396;-78
2022/11/11 03:28:04;;;;;;;;;11.67;11.00;;;;;;;;5078539;27;45597;-79
2022/11/11 03:30:31;;;;;;;;;9.33;9.33;;;;;;;;5084653;27;45484;-80
2022/11/11 03:32:56;;;;;;;;;10.33;10.00;;;;;;;;5065482;27;45670;-80
2022/11/11 03:35:22;;;;;;;;;8.33;8.33;;;;;;;;5063847;28;45352;-80
2022/11/11 03:40:31;;;;;;;;;11.00;10.00;;;;;;;;5072394;28;45866;-80
2022/11/11 03:42:57;;;;;;;;;11.33;10.00;;;;;;;;5058966;28;46518;-79
2022/11/11 03:45:23;;;;;;;;;11.33;9.33;;;;;;;;5059280;28;45328;-79
2022/11/11 03:47:48;;;;;;;;;9.00;9.00;;;;;;;;5059514;28;45376;-79
2022/11/11 03:50:13;;;;;;;;;10.33;9.00;;;;;;;;5070764;28;45367;-80
2022/11/11 03:52:44;;;;;;;;;14.00;11.00;;;;;;;;5064974;28;45388;-81
2022/11/11 03:55:09;;;;;;;;;10.00;9.00;;;;;;;;5077228;28;45547;-79
2022/11/11 03:57:38;;;;;;;;;7.00;7.00;;;;;;;;5079182;28;45378;-79
2022/11/11 04:00:04;;;;;;;;;10.00;8.00;;;;;;;;5074838;28;45303;-80
2022/11/11 04:10:41;;;;;;;;;10.67;10.67;;;;;;;;5072236;27;45721;-80
2022/11/11 04:16:06;;;;;;;;;12.67;10.67;;;;;;;;5062613;28;45491;-80
2022/11/11 04:24:00;;;;;;;;;10.67;9.67;;;;;;;;5073494;28;46394;-79
2022/11/11 04:26:25;;;;;;;;;16.00;11.00;;;;;;;;5063510;28;45680;-80
2022/11/11 04:31:34;;;;;;;;;14.33;13.67;;;;;;;;5064954;28;45699;-80
2022/11/11 04:33:59;;;;;;;;;16.00;14.00;;;;;;;;5063650;28;46676;-81
2022/11/11 04:36:24;;;;;;;;;10.67;9.00;;;;;;;;5053889;28;45773;-79
2022/11/11 04:41:34;;;;;;;;;9.00;7.00;;;;;;;;5070414;28;45729;-80
2022/11/11 04:46:47;;;;;;;;;13.33;9.33;;;;;;;;5051541;28;45507;-80
2022/11/11 04:49:13;;;;;;;;;10.67;9.33;;;;;;;;5054208;28;45566;-78
2022/11/11 04:54:21;;;;;;;;;9.00;8.33;;;;;;;;5070039;27;45555;-80
2022/11/11 04:56:48;;;;;;;;;13.00;11.00;;;;;;;;5055949;28;45542;-81
2022/11/11 04:59:16;;;;;;;;;12.67;10.67;;;;;;;;5062031;28;45856;-79
2022/11/11 05:04:25;;;;;;;;;7.33;6.00;;;;;;;;5074480;28;45597;-80
2022/11/11 05:09:35;;;;;;;;;12.67;10.67;;;;;;;;5063715;28;45895;-82
2022/11/11 05:12:00;;;;;;;;;13.00;11.33;;;;;;;;5068002;28;45552;-81
2022/11/11 05:22:38;;;;;;;;;16.33;12.00;;;;;;;;5075628;28;45497;-81
2022/11/11 05:27:48;;;;;;;;;17.67;11.67;;;;;;;;5071323;28;45614;-80
2022/11/11 05:30:14;;;;;;;;;17.67;13.33;;;;;;;;5053890;28;45994;-81
2022/11/11 05:32:39;;;;;;;;;12.00;11.00;;;;;;;;5064556;28;45909;-80
2022/11/11 05:35:05;;;;;;;;;18.33;14.00;;;;;;;;5068233;28;46039;-80
2022/11/11 05:37:31;;;;;;;;;13.33;12.67;;;;;;;;5061312;28;45834;-82
2022/11/11 05:39:56;;;;;;;;;12.33;10.33;;;;;;;;5070715;28;45529;-82
2022/11/11 05:42:22;;;;;;;;;12.67;12.00;;;;;;;;5049733;28;46068;-82
2022/11/11 05:44:47;;;;;;;;;11.33;9.00;;;;;;;;5067774;28;45904;-82
2022/11/11 05:47:14;;;;;;;;;11.67;11.00;;;;;;;;5070595;28;45522;-81
2022/11/11 05:49:41;;;;;;;;;15.00;12.00;;;;;;;;5077609;28;45736;-81
2022/11/11 05:52:06;;;;;;;;;15.00;14.33;;;;;;;;5072515;28;45213;-78
2022/11/11 05:54:32;;;;;;;;;13.00;11.00;;;;;;;;5053022;28;46727;-80
2022/11/11 05:56:57;;;;;;;;;14.00;14.00;;;;;;;;5069708;28;45454;-79
2022/11/11 05:59:23;;;;;;;;;14.67;11.00;;;;;;;;5059589;28;45546;-80
2022/11/11 06:01:48;;;;;;;;;13.00;12.00;;;;;;;;5074377;28;46020;-81
2022/11/11 06:04:13;;;;;;;;;14.33;11.00;;;;;;;;5053803;28;46745;-81
2022/11/11 06:06:39;;;;;;;;;16.33;12.00;;;;;;;;5074234;27;45409;-81
2022/11/11 06:09:04;;;;;;;;;13.67;13.67;;;;;;;;5058198;28;45423;-80
2022/11/11 06:11:29;;;;;;;;;13.00;11.33;;;;;;;;5065515;28;45390;-83
2022/11/11 06:13:55;;;;;;;;;11.00;11.00;;;;;;;;5045020;28;47582;-81
2022/11/11 06:16:20;;;;;;;;;14.67;12.33;;;;;;;;5048340;28;46262;-80
2022/11/11 06:18:46;;;;;;;;;14.33;13.00;;;;;;;;5071662;28;45836;-81
2022/11/11 06:21:11;;;;;;;;;15.33;13.33;;;;;;;;5069859;28;45410;-81
2022/11/11 06:23:37;;;;;;;;;15.00;13.67;;;;;;;;5070439;28;45722;-80
2022/11/11 06:26:11;;;;;;;;;16.00;14.00;;;;;;;;5070187;28;45338;-82
2022/11/11 06:28:38;;;;;;;;;9.67;9.67;;;;;;;;5055967;28;45517;-82
2022/11/11 06:31:03;;;;;;;;;13.67;11.00;;;;;;;;5057436;28;46736;-83
2022/11/11 06:33:30;;;;;;;;;11.33;10.00;;;;;;;;5071349;28;45987;-82
2022/11/11 06:35:55;;;;;;;;;15.33;13.00;;;;;;;;5072933;28;45448;-80
2022/11/11 06:38:21;;;;;;;;;11.00;11.00;;;;;;;;5065510;28;45539;-80
2022/11/11 06:40:46;;;;;;;;;10.33;10.33;;;;;;;;5051643;28;45942;-82
2022/11/11 06:43:11;;;;;;;;;9.67;8.67;;;;;;;;5066428;28;45529;-82
2022/11/11 06:45:37;;;;;;;;;9.33;9.33;;;;;;;;5076312;28;45562;-79
2022/11/11 06:48:04;;;;;;;;;9.33;8.00;;;;;;;;5055872;28;45804;-79
2022/11/11 06:50:31;;;;;;;;;11.33;8.33;;;;;;;;5055275;28;46322;-84
2022/11/11 06:52:56;;;;;;;;;11.00;8.00;;;;;;;;5075118;28;45566;-81
2022/11/11 06:55:21;;;;;;;;;9.00;8.67;;;;;;;;5057256;28;45468;-80
2022/11/11 06:57:47;;;;;;;;;8.00;8.00;;;;;;;;5060468;28;45486;-80
2022/11/11 07:00:12;;;;;;;;;9.67;8.67;;;;;;;;5063381;28;47021;-81
2022/11/11 07:02:38;;;;;;;;;6.33;6.33;;;;;;;;5055648;28;47176;-81
2022/11/11 07:05:03;;;;;;;;;8.00;7.00;;;;;;;;5060801;28;45405;-82
2022/11/11 07:07:30;;;;;;;;;11.00;7.00;;;;;;;;5053463;28;45593;-84
2022/11/11 07:09:56;;;;;;;;;10.00;5.67;;;;;;;;5065309;28;45907;-81
2022/11/11 07:12:22;;;;;;;;;9.00;7.00;;;;;;;;5060181;28;45689;-83
2022/11/11 07:14:49;;;;;;;;;12.00;8.67;;;;;;;;5085211;27;45815;-82
2022/11/11 07:17:16;;;;;;;;;5.00;5.00;;;;;;;;5075534;28;45411;-82
2022/11/11 07:19:48;;;;;;;;;7.33;7.33;;;;;;;;5066100;28;46306;-83
2022/11/11 07:28:14;;;;;;;;;11.67;10.00;;;;;;;;5020385;28;45593;-84
2022/11/11 07:30:53;;;;;;;;;8.33;7.33;;;;;;;;5021872;28;45439;-86
2022/11/11 07:36:47;;;;;;;;;12.00;9.67;;;;;;;;5004335;28;45296;-85
2022/11/11 07:43:04;;;;;;;;;6.67;6.67;;;;;;;;4941033;28;46528;-88
2022/11/11 07:51:27;;;;;;;;;7.33;7.33;;;;;;;;4971134;28;45974;-72
2022/11/11 07:53:52;;;;;;;;;9.67;8.00;;;;;;;;4972001;28;45452;-73
2022/11/11 07:56:17;;;;;;;;;9.33;9.00;;;;;;;;4967022;28;46147;-72
2022/11/11 07:58:43;;;;;;;;;7.00;7.00;;;;;;;;4963178;28;45760;-71
2022/11/11 08:01:08;;;;;;;;;10.33;7.33;;;;;;;;4972984;28;45856;-72
2022/11/11 08:03:33;;;;;;;;;11.33;7.67;;;;;;;;4973454;28;45675;-70
2022/11/11 08:06:00;;;;;;;;;13.67;13.00;;;;;;;;4969856;28;45475;-71
2022/11/11 08:08:26;;;;;;;;;8.67;8.67;;;;;;;;4970648;28;46210;-67
2022/11/11 08:10:54;;;;;;;;;10.00;8.00;;;;;;;;4968798;28;46015;-67
2022/11/11 08:16:05;;;;;;;;;13.33;10.33;;;;;;;;4969790;28;45815;-72
2022/11/11 08:18:31;;;;;;;;;10.33;9.00;;;;;;;;4969657;28;46363;-72
2022/11/11 08:20:56;;;;;;;;;14.33;10.67;;;;;;;;4963470;28;45517;-72
2022/11/11 08:23:31;;;;;;;;;15.33;13.33;;;;;;;;4966913;28;45689;-70
2022/11/11 08:26:00;;;;;;;;;12.00;11.67;;;;;;;;4978324;28;47276;-71
2022/11/11 08:28:26;;;;;;;;;12.00;11.00;;;;;;;;4963733;28;45728;-69
2022/11/11 08:30:52;;;;;;;;;14.00;10.67;;;;;;;;4965472;28;45391;-71
2022/11/11 08:33:17;;;;;;;;;15.00;12.00;;;;;;;;4967511;28;45898;-71
2022/11/11 08:35:42;;;;;;;;;10.00;9.00;;;;;;;;4962128;28;45473;-71
2022/11/11 08:38:07;;;;;;;;;13.00;9.00;;;;;;;;4966520;28;45567;-70
2022/11/11 08:40:32;;;;;;;;;11.33;11.33;;;;;;;;4964511;28;45500;-68
2022/11/11 08:42:58;;;;;;;;;10.33;9.33;;;;;;;;4969479;28;45533;-69
2022/11/11 08:45:24;;;;;;;;;16.67;15.67;;;;;;;;4957388;28;46140;-69
2022/11/11 08:47:49;;;;;;;;;9.67;9.33;;;;;;;;4962379;28;45963;-67
2022/11/11 08:50:15;;;;;;;;;11.67;8.67;;;;;;;;4968855;28;46518;-67
2022/11/11 08:52:47;;;;;;;;;13.00;10.67;;;;;;;;4970720;28;45781;-68
2022/11/11 08:55:12;;;;;;;;;11.00;11.00;;;;;;;;4963263;28;45933;-70
2022/11/11 08:57:37;;;;;;;;;12.00;9.00;;;;;;;;4968719;28;46046;-72
2022/11/11 09:00:03;;;;;;;;;13.00;10.00;;;;;;;;4970535;28;45898;-71
2022/11/11 09:02:29;;;;;;;;;10.00;8.67;;;;;;;;4971150;28;45677;-71
2022/11/11 09:04:54;;;;;;;;;9.33;7.33;;;;;;;;4971290;28;45833;-69
2022/11/11 09:07:19;;;;;;;;;12.67;11.00;;;;;;;;4963848;28;45880;-68
2022/11/11 09:09:44;;;;;;;;;13.33;11.00;;;;;;;;4960538;28;45964;-68
2022/11/11 09:12:10;;;;;;;;;9.33;8.67;;;;;;;;4963462;28;45864;-67
2022/11/11 09:14:35;;;;;;;;;10.33;9.67;;;;;;;;4965106;28;45636;-67
2022/11/11 09:17:00;;;;;;;;;10.00;6.33;;;;;;;;4954435;28;45401;-70
2022/11/11 09:19:26;;;;;;;;;8.00;8.00;;;;;;;;4970858;28;45397;-70
2022/11/11 09:21:54;;;;;;;;;10.33;7.67;;;;;;;;4972316;28;45547;-71
2022/11/11 09:24:19;;;;;;;;;8.67;8.67;;;;;;;;4966674;28;46348;-68
2022/11/11 09:26:46;;;;;;;;;12.67;9.67;;;;;;;;4970888;28;45989;-71
2022/11/11 09:29:11;;;;;;;;;13.00;10.67;;;;;;;;4968755;28;45789;-70
2022/11/11 09:31:36;;;;;;;;;16.00;11.67;;;;;;;;4969154;28;45778;-71
2022/11/11 09:34:02;;;;;;;;;10.33;9.33;;;;;;;;4961714;28;45672;-73
2022/11/11 09:36:30;;;;;;;;;9.00;9.00;;;;;;;;4965110;28;45712;-72
2022/11/11 09:38:55;;;;;;;;;19.33;14.00;;;;;;;;4970309;28;45762;-71
2022/11/11 09:41:23;;;;;;;;;14.67;11.00;;;;;;;;4964206;28;45894;-71
2022/11/11 09:43:52;;;;;;;;;16.33;14.00;;;;;;;;4962451;28;46198;-68
2022/11/11 09:46:22;;;;;;;;;1.00;0.00;;;;;;;;4964384;28;45485;-68
2022/11/11 09:48:47;;;;;;;;;10.33;9.67;;;;;;;;4967639;28;45595;-69
2022/11/11 09:51:20;;;;;;;;;16.67;11.67;;;;;;;;4968391;28;45733;-70
2022/11/11 09:53:49;;;;;;;;;10.67;9.33;;;;;;;;4976871;28;45776;-70
2022/11/11 09:56:17;;;;;;;;;11.67;8.67;;;;;;;;4971560;28;45589;-71
2022/11/11 09:58:45;;;;;;;;;11.67;9.33;;;;;;;;4972132;28;45610;-71
2022/11/11 10:01:24;;;;;;;;;9.00;9.00;;;;;;;;4966938;28;45820;-73
2022/11/11 10:04:00;;;;;;;;;11.00;10.00;;;;;;;;4976440;28;46146;-68
2022/11/11 10:06:28;;;;;;;;;12.67;11.67;;;;;;;;4976260;28;45307;-71
2022/11/11 10:09:05;;;;;;;;;16.00;14.00;;;;;;;;4972870;28;45471;-69
2022/11/11 10:11:36;;;;;;;;;15.67;13.33;;;;;;;;4974179;28;46683;-71
2022/11/11 10:14:02;;;;;;;;;13.33;11.67;;;;;;;;4972500;28;45675;-68
2022/11/11 10:16:39;;;;;;;;;9.67;8.67;;;;;;;;4972656;28;45289;-70
2022/11/11 10:19:23;;;;;;;;;14.00;11.33;;;;;;;;4970249;28;45980;-72
2022/11/11 10:21:53;;;;;;;;;10.33;8.33;;;;;;;;4963472;28;45810;-69
2022/11/11 10:24:26;;;;;;;;;13.33;8.67;;;;;;;;4969241;28;46188;-70
2022/11/11 10:26:51;;;;;;;;;9.67;8.00;;;;;;;;4968850;28;45904;-71
2022/11/11 10:29:21;;;;;;;;;14.67;10.67;;;;;;;;4967868;28;45808;-72
2022/11/11 10:31:55;;;;;;;;;9.00;8.00;;;;;;;;4976103;28;45684;-70
2022/11/11 10:34:21;;;;;;;;;9.00;9.00;;;;;;;;4964725;28;45781;-69
2022/11/11 10:36:53;;;;;;;;;11.33;9.00;;;;;;;;4961635;28;45448;-71
2022/11/11 10:39:27;;;;;;;;;11.33;11.33;;;;;;;;4965972;28;45806;-70
2022/11/11 10:41:53;;;;;;;;;12.00;12.00;;;;;;;;4963267;28;46976;-70
2022/11/11 10:44:19;;;;;;;;;13.00;12.00;;;;;;;;4966952;28;45323;-70
2022/11/11 10:46:50;;;;;;;;;10.33;10.00;;;;;;;;4971501;28;45778;-68
2022/11/11 10:49:20;;;;;;;;;23.33;20.67;;;;;;;;4927100;28;1225075;-72
2022/11/11 10:51:55;;;;;;;;;15.33;12.00;;;;;;;;4965963;28;45574;-74
2022/11/11 10:54:25;;;;;;;;;11.67;11.67;;;;;;;;4967955;28;46200;-71
2022/11/11 10:56:57;;;;;;;;;13.33;13.33;;;;;;;;4960077;28;45517;-70
2022/11/11 10:59:30;;;;;;;;;10.00;10.00;;;;;;;;4966728;28;45938;-69
2022/11/11 11:02:14;;;;;;;;;14.33;11.33;;;;;;;;4974086;28;46002;-69
2022/11/11 11:04:45;;;;;;;;;17.33;11.33;;;;;;;;4970498;28;45866;-67
2022/11/11 11:07:14;;;;;;;;;10.00;10.00;;;;;;;;4968975;28;45773;-68
2022/11/11 11:09:39;;;;;;;;;11.33;11.33;;;;;;;;4968024;28;45600;-68
2022/11/11 11:12:04;;;;;;;;;10.67;9.33;;;;;;;;4971196;28;46753;-69
2022/11/11 11:14:32;;;;;;;;;11.33;9.00;;;;;;;;4970762;28;48814;-68
2022/11/11 11:16:58;;;;;;;;;12.67;10.00;;;;;;;;4969251;28;45459;-66
2022/11/11 11:19:25;;;;;;;;;12.67;12.00;;;;;;;;4962974;28;45773;-67
2022/11/11 11:21:50;;;;;;;;;15.67;11.67;;;;;;;;4965794;28;45575;-67
2022/11/11 11:24:20;;;;;;;;;11.00;10.00;;;;;;;;4971302;28;45483;-68
2022/11/11 11:26:47;;;;;;;;;14.67;14.33;;;;;;;;4962410;28;46018;-68
2022/11/11 11:29:12;;;;;;;;;10.33;8.67;;;;;;;;4971277;28;45776;-68
2022/11/11 11:31:38;;;;;;;;;15.33;14.33;;;;;;;;4972989;28;45388;-69
2022/11/11 11:34:04;;;;;;;;;16.33;12.00;;;;;;;;4967437;28;45387;-68
2022/11/11 11:36:29;;;;;;;;;13.33;11.67;;;;;;;;4973009;28;45423;-67
2022/11/11 11:38:55;;;;;;;;;9.67;9.67;;;;;;;;4964156;28;45426;-70
2022/11/11 11:41:36;;;;;;;;;19.00;16.33;;;;;;;;4963924;28;45834;-68
2022/11/11 11:44:02;;;;;;;;;10.33;9.00;;;;;;;;4961764;28;45372;-68
2022/11/11 11:46:30;;;;;;;;;14.67;13.67;;;;;;;;4968658;28;45820;-69
2022/11/11 11:49:01;;;;;;;;;12.67;12.00;;;;;;;;4978650;28;45500;-66
2022/11/11 11:52:05;;;;;;;;;15.67;14.67;;;;;;;;4964770;28;45788;-70
2022/11/11 11:54:39;;;;;;;;;15.00;14.67;;;;;;;;4918683;28;47126;-69
2022/11/11 11:57:14;;;;;;;;;17.00;13.00;;;;;;;;4914960;28;45785;-69
2022/11/11 11:59:47;;;;;;;;;11.33;11.33;;;;;;;;4950291;28;46155;-71
2022/11/11 12:02:30;;;;;;;;;12.67;10.67;;;;;;;;4968286;28;47120;-68
2022/11/11 12:04:58;;;;;;;;;11.67;11.00;;;;;;;;4962865;28;45603;-69
2022/11/11 12:07:44;;;;;;;;;12.67;9.33;;;;;;;;4967023;28;45428;-68
2022/11/11 12:10:26;;;;;;;;;15.33;14.00;;;;;;;;4959832;28;45569;-66
2022/11/11 12:12:57;;;;;;;;;13.33;12.33;;;;;;;;4967703;28;46173;-67
2022/11/11 12:15:26;;;;;;;;;25.00;22.67;;;;;;;;4967297;28;45766;-66
2022/11/11 12:18:00;;;;;;;;;13.00;13.00;;;;;;;;4964453;28;45874;-66
2022/11/11 12:20:31;;;;;;;;;15.00;15.00;;;;;;;;4952406;28;45451;-67
2022/11/11 12:23:10;;;;;;;;;15.00;12.67;;;;;;;;4976657;28;45543;-68
2022/11/11 12:25:50;;;;;;;;;14.67;14.67;;;;;;;;4963201;28;45775;-67
2022/11/11 12:28:31;;;;;;;;;14.33;12.67;;;;;;;;4965621;28;45729;-65
2022/11/11 12:31:11;;;;;;;;;16.33;12.33;;;;;;;;4963347;28;45598;-68
2022/11/11 12:33:55;;;;;;;;;14.33;14.33;;;;;;;;4967218;28;47682;-65
2022/11/11 12:36:28;;;;;;;;;13.67;12.67;;;;;;;;4971517;28;45736;-73
2022/11/11 12:39:03;;;;;;;;;15.67;14.00;;;;;;;;4964809;28;45524;-69
2022/11/11 12:41:40;;;;;;;;;16.00;15.67;;;;;;;;4971423;28;45676;-69
2022/11/11 12:44:07;;;;;;;;;14.33;13.00;;;;;;;;4972311;28;45739;-71
2022/11/11 12:46:38;;;;;;;;;17.00;15.00;;;;;;;;4964136;28;45466;-69
2022/11/11 12:49:22;;;;;;;;;18.33;18.33;;;;;;;;4965733;28;45894;-67
2022/11/11 12:52:05;;;;;;;;;16.67;15.33;;;;;;;;4966150;28;45791;-70
2022/11/11 12:54:30;;;;;;;;;21.00;19.00;;;;;;;;4988439;28;46044;-67
2022/11/11 12:57:14;;;;;;;;;18.00;17.00;;;;;;;;4987920;28;47709;-67
2022/11/11 12:59:52;;;;;;;;;22.33;17.67;;;;;;;;4971876;28;45819;-68
2022/11/11 13:02:26;;;;;;;;;15.67;13.67;;;;;;;;4968953;28;45668;-68
2022/11/11 13:04:52;;;;;;;;;19.00;17.33;;;;;;;;4973009;28;45362;-68
2022/11/11 13:07:20;;;;;;;;;21.33;20.00;;;;;;;;4967809;28;46614;-68
2022/11/11 13:10:05;;;;;;;;;18.67;17.33;;;;;;;;4962002;28;45497;-67
2022/11/11 13:12:37;;;;;;;;;19.67;17.67;;;;;;;;4944042;28;45759;-67
2022/11/11 13:15:02;;;;;;;;;21.33;17.67;;;;;;;;4970416;28;45660;-69
2022/11/11 13:17:30;;;;;;;;;20.00;19.00;;;;;;;;4987239;28;47931;-69
2022/11/11 13:19:58;;;;;;;;;16.33;15.00;;;;;;;;4987235;28;45474;-67
2022/11/11 13:22:26;;;;;;;;;17.33;15.67;;;;;;;;4971604;28;45296;-67
2022/11/11 13:24:52;;;;;;;;;17.33;15.00;;;;;;;;4952238;28;46992;-68
2022/11/11 13:27:36;;;;;;;;;18.00;17.00;;;;;;;;4947784;28;45876;-67
2022/11/11 13:30:06;;;;;;;;;21.33;19.67;;;;;;;;4962701;28;45592;-68
2022/11/11 13:32:46;;;;;;;;;18.33;16.67;;;;;;;;4971280;28;45449;-67
2022/11/11 13:35:25;;;;;;;;;20.67;17.67;;;;;;;;4963940;28;46851;-67
2022/11/11 13:37:50;;;;;;;;;19.33;16.33;;;;;;;;4965434;28;45673;-68
2022/11/11 13:40:34;;;;;;;;;18.00;17.33;;;;;;;;4972664;28;45835;-66
2022/11/11 13:43:00;;;;;;;;;18.33;17.33;;;;;;;;4971697;28;45522;-67
2022/11/11 13:45:33;;;;;;;;;12.33;9.33;;;;;;;;4969355;28;45721;-68
2022/11/11 13:47:58;;;;;;;;;19.33;18.00;;;;;;;;4965845;28;46815;-67
2022/11/11 13:50:27;;;;;;;;;18.67;15.33;;;;;;;;4950925;28;45801;-67
2022/11/11 13:53:02;;;;;;;;;17.00;16.00;;;;;;;;4959521;28;45823;-67
2022/11/11 13:55:30;;;;;;;;;21.33;19.67;;;;;;;;4964323;28;45511;-68
2022/11/11 13:57:55;;;;;;;;;14.67;14.67;;;;;;;;4952203;28;47302;-68
2022/11/11 14:00:21;;;;;;;;;18.33;15.33;;;;;;;;4970717;28;45730;-69
2022/11/11 14:02:46;;;;;;;;;18.00;16.00;;;;;;;;4969457;28;45411;-68
2022/11/11 14:05:11;;;;;;;;;18.00;16.67;;;;;;;;4970542;28;45568;-68
2022/11/11 14:07:43;;;;;;;;;15.00;14.00;;;;;;;;4970892;28;45368;-69
2022/11/11 14:10:11;;;;;;;;;22.67;15.67;;;;;;;;4969863;28;45533;-69
2022/11/11 14:12:40;;;;;;;;;22.33;18.33;;;;;;;;4955219;28;45533;-67
2022/11/11 14:15:26;;;;;;;;;12.00;12.00;;;;;;;;4971753;28;45703;-69
2022/11/11 14:17:51;;;;;;;;;12.33;11.67;;;;;;;;4970863;28;45626;-68
2022/11/11 14:20:28;;;;;;;;;17.00;14.33;;;;;;;;4972182;28;45575;-67
2022/11/11 14:22:54;;;;;;;;;16.67;15.33;;;;;;;;4971024;28;45676;-68
2022/11/11 14:25:26;;;;;;;;;11.33;8.67;;;;;;;;4968176;28;45391;-66
2022/11/11 14:28:00;;;;;;;;;8.67;7.67;;;;;;;;4954437;28;47160;-67
2022/11/11 14:30:27;;;;;;;;;17.00;14.33;;;;;;;;4965338;28;45458;-68
2022/11/11 14:33:08;;;;;;;;;20.00;17.33;;;;;;;;4967104;28;45814;-68
2022/11/11 14:36:02;;;;;;;;;13.33;13.00;;;;;;;;4968510;28;47002;-67
2022/11/11 14:38:59;;;;;;;;;18.33;13.67;;;;;;;;4892612;28;45375;-68
2022/11/11 14:41:45;;;;;;;;;16.33;13.00;;;;;;;;4968849;28;45381;-68
2022/11/11 14:44:28;;;;;;;;;13.00;13.00;;;;;;;;4971349;28;45369;-67
2022/11/11 14:47:05;;;;;;;;;12.67;12.67;;;;;;;;4972941;28;45925;-67
2022/11/11 14:49:43;;;;;;;;;12.33;12.33;;;;;;;;4973669;28;46192;-67
2022/11/11 14:52:20;;;;;;;;;16.67;12.33;;;;;;;;4981863;28;45473;-66
2022/11/11 14:55:01;;;;;;;;;16.00;16.00;;;;;;;;4978706;28;45932;-67
2022/11/11 14:57:33;;;;;;;;;15.00;11.33;;;;;;;;4976538;28;46380;-69
2022/11/11 15:00:00;;;;;;;;;15.33;13.00;;;;;;;;4976301;28;45548;-67
2022/11/11 15:02:41;;;;;;;;;10.00;10.00;;;;;;;;4965147;28;45427;-70
2022/11/11 15:05:11;;;;;;;;;26.00;23.00;;;;;;;;4971886;28;45810;-68
2022/11/11 15:07:44;;;;;;;;;12.67;11.67;;;;;;;;4979563;28;46114;-69
2022/11/11 15:10:09;;;;;;;;;12.00;11.33;;;;;;;;4969432;28;45826;-68
2022/11/11 15:12:42;;;;;;;;;14.67;14.67;;;;;;;;4974625;28;45535;-69
2022/11/11 15:15:16;;;;;;;;;17.00;13.67;;;;;;;;4969235;28;45748;-69
2022/11/11 15:17:47;;;;;;;;;19.67;14.00;;;;;;;;4971531;28;45452;-68
2022/11/11 15:20:27;;;;;;;;;17.67;16.00;;;;;;;;4971288;28;45696;-69
2022/11/11 15:23:26;;;;;;;;;13.33;10.67;;;;;;;;4973141;28;45456;-67
2022/11/11 15:26:10;;;;;;;;;14.67;13.00;;;;;;;;4973118;28;45737;-69
2022/11/11 15:28:51;;;;;;;;;10.67;9.33;;;;;;;;4970576;28;45955;-68
2022/11/11 15:31:42;;;;;;;;;9.67;8.67;;;;;;;;4971948;28;46426;-67
2022/11/11 15:34:26;;;;;;;;;15.00;12.67;;;;;;;;4975455;28;45750;-68
2022/11/11 15:39:56;;;;;;;;;14.67;12.33;;;;;;;;4965888;28;45460;-67
2022/11/11 15:42:50;;;;;;;;;17.00;14.67;;;;;;;;4978291;28;46012;-68
2022/11/11 15:45:18;;;;;;;;;14.00;13.33;;;;;;;;4973346;28;45672;-68
2022/11/11 15:47:43;;;;;;;;;15.67;15.67;;;;;;;;4974485;28;45391;-67
2022/11/11 15:50:26;;;;;;;;;15.33;13.67;;;;;;;;4966078;28;45865;-69
2022/11/11 15:52:56;;;;;;;;;16.67;12.67;;;;;;;;4975375;28;45727;-70
2022/11/11 15:55:23;;;;;;;;;12.00;8.00;;;;;;;;4975490;28;45709;-67
2022/11/11 15:57:48;;;;;;;;;20.33;17.00;;;;;;;;4984003;28;45826;-68
2022/11/11 16:00:31;;;;;;;;;19.00;17.33;;;;;;;;4971629;28;45371;-68
2022/11/11 16:02:56;;;;;;;;;16.33;16.33;;;;;;;;4971208;28;45466;-68
2022/11/11 16:05:29;;;;;;;;;17.67;14.67;;;;;;;;4977885;28;45538;-68
2022/11/11 16:08:21;;;;;;;;;18.67;18.33;;;;;;;;4973750;28;45613;-68
2022/11/11 16:10:46;;;;;;;;;20.33;15.67;;;;;;;;4973991;28;45631;-68
2022/11/11 16:13:19;;;;;;;;;15.67;15.33;;;;;;;;4975554;28;46255;-67